createdAt,value
2019-03-30T00:01:01.862Z,4.00
2019-03-30T00:03:35.648Z,4.00
2019-03-30T00:06:09.008Z,4.00
2019-03-30T00:08:43.808Z,3.90
2019-03-30T00:11:17.329Z,3.50
2019-03-30T00:13:51.108Z,3.50
2019-03-30T00:16:25.495Z,3.30
2019-03-30T00:18:58.857Z,3.40
2019-03-30T00:21:33.337Z,3.40
2019-03-30T00:24:06.807Z,3.30
2019-03-30T00:26:40.138Z,3.40
2019-03-30T00:29:13.737Z,3.50
2019-03-30T00:31:47.261Z,3.60
2019-03-30T00:34:21.160Z,3.50
2019-03-30T00:36:54.622Z,3.50
2019-03-30T00:39:28.343Z,3.50
2019-03-30T00:42:01.712Z,3.40
2019-03-30T00:44:35.842Z,3.40
2019-03-30T00:47:09.253Z,3.10
2019-03-30T00:49:49.169Z,3.10
2019-03-30T00:52:18.295Z,3.00
2019-03-30T00:54:51.663Z,3.10
2019-03-30T00:57:25.047Z,2.90
2019-03-30T00:59:58.413Z,2.90
2019-03-30T01:02:32.090Z,2.70
2019-03-30T01:05:07.695Z,2.70
2019-03-30T01:07:41.441Z,2.80
2019-03-30T01:10:15.388Z,2.80
2019-03-30T01:12:49.339Z,2.80
2019-03-30T01:15:23.089Z,2.80
2019-03-30T01:17:57.206Z,2.60
2019-03-30T01:20:32.457Z,2.50
2019-03-30T01:23:06.144Z,2.50
2019-03-30T01:25:40.694Z,2.40
2019-03-30T01:28:15.752Z,2.40
2019-03-30T01:30:49.525Z,2.40
2019-03-30T01:33:24.091Z,2.40
2019-03-30T01:35:57.507Z,2.40
2019-03-30T01:38:31.646Z,2.50
2019-03-30T01:41:05.462Z,2.40
2019-03-30T01:43:40.146Z,2.50
2019-03-30T01:46:14.393Z,2.40
2019-03-30T01:48:48.994Z,2.20
2019-03-30T01:51:22.999Z,2.20
2019-03-30T01:53:57.296Z,2.30
2019-03-30T01:56:30.607Z,2.20
2019-03-30T01:59:05.096Z,2.30
2019-03-30T02:01:39.994Z,2.20
2019-03-30T02:04:13.509Z,2.30
2019-03-30T02:06:49.400Z,2.20
2019-03-30T02:09:24.020Z,2.20
2019-03-30T02:11:57.561Z,2.10
2019-03-30T02:14:31.259Z,2.00
2019-03-30T02:17:04.746Z,2.00
2019-03-30T02:19:38.211Z,1.90
2019-03-30T02:22:12.364Z,2.10
2019-03-30T02:24:45.729Z,2.30
2019-03-30T02:27:19.198Z,2.40
2019-03-30T02:29:52.598Z,2.40
2019-03-30T02:32:26.816Z,2.50
2019-03-30T02:35:01.315Z,2.50
2019-03-30T02:37:34.900Z,2.70
2019-03-30T02:40:08.636Z,2.70
2019-03-30T02:42:42.269Z,2.60
2019-03-30T02:45:15.914Z,2.80
2019-03-30T02:47:50.205Z,2.70
2019-03-30T02:50:27.363Z,2.80
2019-03-30T02:53:01.807Z,2.90
2019-03-30T02:55:36.101Z,2.90
2019-03-30T02:58:10.261Z,2.80
2019-03-30T03:00:44.795Z,3.10
2019-03-30T03:03:19.794Z,3.10
2019-03-30T03:05:55.123Z,3.10
2019-03-30T03:08:29.160Z,3.20
2019-03-30T03:11:03.441Z,3.20
2019-03-30T03:13:37.996Z,3.40
2019-03-30T03:16:14.492Z,3.30
2019-03-30T03:18:48.163Z,3.20
2019-03-30T03:21:21.819Z,3.30
2019-03-30T03:23:55.492Z,3.30
2019-03-30T03:26:31.997Z,3.40
2019-03-30T03:29:05.795Z,3.20
2019-03-30T03:31:39.493Z,3.40
2019-03-30T03:34:13.096Z,3.60
2019-03-30T03:36:47.259Z,3.40
2019-03-30T03:39:21.912Z,3.60
2019-03-30T03:41:56.836Z,3.70
2019-03-30T03:44:32.141Z,3.70
2019-03-30T03:47:07.997Z,3.80
2019-03-30T03:49:41.992Z,3.70
2019-03-30T03:52:15.441Z,3.80
2019-03-30T03:54:48.845Z,3.70
2019-03-30T03:57:26.692Z,3.90
2019-03-30T04:00:02.998Z,4.00
2019-03-30T04:02:39.252Z,4.00
2019-03-30T04:05:12.797Z,4.00
2019-03-30T04:07:50.013Z,4.00
2019-03-30T04:10:27.779Z,3.90
2019-03-30T04:13:06.939Z,3.90
2019-03-30T04:15:39.543Z,4.00
2019-03-30T04:18:12.920Z,4.00
2019-03-30T04:20:46.445Z,3.80
2019-03-30T04:23:20.040Z,3.80
2019-03-30T04:25:54.819Z,3.80
2019-03-30T04:28:28.360Z,3.90
2019-03-30T04:31:03.078Z,3.80
2019-03-30T04:33:37.908Z,4.00
2019-03-30T04:36:11.297Z,4.00
2019-03-30T04:38:44.761Z,4.10
2019-03-30T04:41:18.287Z,4.10
2019-03-30T04:43:51.721Z,4.20
2019-03-30T04:46:25.004Z,4.30
2019-03-30T04:49:00.251Z,4.30
2019-03-30T04:51:33.642Z,4.30
2019-03-30T04:54:07.316Z,4.20
2019-03-30T04:56:42.896Z,4.10
2019-03-30T04:59:17.101Z,4.20
2019-03-30T05:01:50.411Z,4.30
2019-03-30T05:04:28.495Z,4.50
2019-03-30T05:07:03.513Z,4.50
2019-03-30T05:09:38.887Z,4.60
2019-03-30T05:12:12.442Z,4.60
2019-03-30T05:14:46.118Z,4.60
2019-03-30T05:17:21.007Z,4.50
2019-03-30T05:19:55.940Z,4.60
2019-03-30T05:22:31.061Z,4.50
2019-03-30T05:25:05.589Z,4.50
2019-03-30T05:27:39.839Z,4.70
2019-03-30T05:30:13.701Z,4.70
2019-03-30T05:32:47.161Z,4.80
2019-03-30T05:35:20.666Z,4.90
2019-03-30T05:37:55.246Z,5.00
2019-03-30T05:40:28.841Z,5.00
2019-03-30T05:43:04.642Z,5.00
2019-03-30T05:45:38.367Z,5.10
2019-03-30T05:48:11.795Z,5.00
2019-03-30T05:50:45.139Z,5.00
2019-03-30T05:53:18.510Z,5.10
2019-03-30T05:55:53.137Z,5.00
2019-03-30T05:58:26.892Z,5.00
2019-03-30T06:01:00.291Z,5.20
2019-03-30T06:03:35.534Z,5.10
2019-03-30T06:06:09.539Z,5.20
2019-03-30T06:08:43.782Z,5.20
2019-03-30T06:11:17.101Z,5.30
2019-03-30T06:13:53.206Z,5.30
2019-03-30T06:16:26.722Z,5.30
2019-03-30T06:19:01.188Z,5.40
2019-03-30T06:21:34.959Z,5.50
2019-03-30T06:24:09.451Z,5.40
2019-03-30T06:26:42.858Z,5.40
2019-03-30T06:29:16.799Z,5.50
2019-03-30T06:31:50.706Z,5.50
2019-03-30T06:34:24.329Z,5.70
2019-03-30T06:36:58.213Z,5.90
2019-03-30T06:39:33.043Z,6.00
2019-03-30T06:42:09.185Z,6.10
2019-03-30T06:44:42.850Z,6.30
2019-03-30T06:47:16.490Z,6.40
2019-03-30T06:49:49.839Z,6.40
2019-03-30T06:52:23.710Z,6.40
2019-03-30T06:55:00.037Z,6.60
2019-03-30T06:57:35.744Z,6.60
2019-03-30T07:00:11.185Z,6.60
2019-03-30T07:02:44.890Z,6.70
2019-03-30T07:05:19.792Z,6.70
2019-03-30T07:07:54.442Z,6.80
2019-03-30T07:10:29.319Z,6.90
2019-03-30T07:13:05.195Z,7.00
2019-03-30T07:15:47.796Z,7.00
2019-03-30T07:18:22.957Z,7.00
2019-03-30T07:20:56.303Z,7.00
2019-03-30T07:23:29.960Z,7.10
2019-03-30T07:26:03.548Z,7.10
2019-03-30T07:28:37.450Z,7.30
2019-03-30T07:31:13.939Z,7.30
2019-03-30T07:33:50.006Z,7.50
2019-03-30T07:36:25.994Z,7.60
2019-03-30T07:39:00.858Z,7.70
2019-03-30T07:41:35.992Z,7.90
2019-03-30T07:44:09.589Z,7.80
2019-03-30T07:46:43.405Z,8.00
2019-03-30T07:49:16.993Z,8.00
2019-03-30T07:51:51.693Z,8.00
2019-03-30T07:54:27.741Z,8.10
2019-03-30T07:57:07.084Z,8.00
2019-03-30T07:59:36.992Z,8.10
2019-03-30T08:02:10.471Z,8.20
2019-03-30T08:04:45.458Z,8.30
2019-03-30T08:07:19.118Z,8.40
2019-03-30T08:09:54.550Z,8.40
2019-03-30T08:12:28.794Z,8.20
2019-03-30T08:15:02.755Z,8.40
2019-03-30T08:17:36.547Z,8.40
2019-03-30T08:20:12.046Z,8.40
2019-03-30T08:22:47.442Z,8.50
2019-03-30T08:25:21.042Z,8.60
2019-03-30T08:27:55.694Z,8.50
2019-03-30T08:30:29.538Z,8.60
2019-03-30T08:33:04.291Z,8.80
2019-03-30T08:35:37.784Z,8.80
2019-03-30T08:38:14.188Z,8.80
2019-03-30T08:40:47.992Z,9.10
2019-03-30T08:43:22.542Z,9.00
2019-03-30T08:45:58.896Z,8.90
2019-03-30T08:48:32.638Z,9.00
2019-03-30T08:51:07.001Z,9.20
2019-03-30T08:53:53.737Z,9.40
2019-03-30T08:56:15.787Z,9.20
2019-03-30T08:58:49.522Z,9.30
2019-03-30T09:01:22.959Z,9.20
2019-03-30T09:03:56.749Z,9.40
2019-03-30T09:06:30.012Z,9.50
2019-03-30T09:09:03.994Z,9.50
2019-03-30T09:11:37.646Z,9.60
2019-03-30T09:14:12.808Z,9.80
2019-03-30T09:16:47.039Z,9.60
2019-03-30T09:19:23.313Z,9.70
2019-03-30T09:21:56.918Z,9.70
2019-03-30T09:24:30.250Z,10.00
2019-03-30T09:27:03.676Z,10.20
2019-03-30T09:29:37.054Z,10.20
2019-03-30T09:32:14.678Z,10.00
2019-03-30T09:34:45.375Z,10.20
2019-03-30T09:37:18.831Z,10.20
2019-03-30T09:39:52.302Z,10.20
2019-03-30T09:42:25.687Z,10.30
2019-03-30T09:44:59.102Z,10.30
2019-03-30T09:47:32.503Z,10.40
2019-03-30T09:50:08.874Z,10.70
2019-03-30T09:52:43.302Z,10.90
2019-03-30T09:55:16.764Z,10.90
2019-03-30T09:57:50.157Z,10.90
2019-03-30T10:00:23.536Z,11.00
2019-03-30T10:02:56.950Z,10.90
2019-03-30T10:05:30.294Z,11.20
2019-03-30T10:08:03.733Z,11.00
2019-03-30T10:10:37.112Z,10.80
2019-03-30T10:13:11.514Z,11.00
2019-03-30T10:15:44.878Z,11.00
2019-03-30T10:18:18.213Z,11.00
2019-03-30T10:20:51.598Z,11.00
2019-03-30T10:23:24.894Z,10.90
2019-03-30T10:25:58.238Z,10.90
2019-03-30T10:28:31.567Z,10.90
2019-03-30T10:31:04.934Z,10.70
2019-03-30T10:33:38.342Z,10.90
2019-03-30T10:36:12.707Z,10.90
2019-03-30T10:38:46.113Z,10.90
2019-03-30T10:41:19.481Z,11.00
2019-03-30T10:43:52.877Z,11.30
2019-03-30T10:46:27.420Z,11.30
2019-03-30T10:49:00.872Z,11.50
2019-03-30T10:51:34.249Z,11.60
2019-03-30T10:54:15.414Z,11.80
2019-03-30T10:56:48.789Z,11.60
2019-03-30T10:59:22.199Z,11.90
2019-03-30T11:01:55.530Z,11.90
2019-03-30T11:04:28.848Z,12.00
2019-03-30T11:07:02.160Z,12.10
2019-03-30T11:09:35.609Z,12.20
2019-03-30T11:12:09.513Z,12.20
2019-03-30T11:14:44.610Z,12.40
2019-03-30T11:17:19.487Z,12.40
2019-03-30T11:19:52.981Z,12.70
2019-03-30T11:22:27.538Z,12.90
2019-03-30T11:25:07.687Z,12.80
2019-03-30T11:27:36.082Z,13.00
2019-03-30T11:30:10.030Z,13.10
2019-03-30T11:32:44.407Z,13.20
2019-03-30T11:35:17.807Z,13.30
2019-03-30T11:37:51.179Z,13.50
2019-03-30T11:40:24.616Z,13.60
2019-03-30T11:42:58.026Z,13.70
2019-03-30T11:45:31.522Z,13.70
2019-03-30T11:48:08.067Z,13.90
2019-03-30T11:50:41.520Z,13.90
2019-03-30T11:53:14.929Z,14.00
2019-03-30T11:55:50.118Z,14.20
2019-03-30T11:58:24.515Z,14.10
2019-03-30T12:00:57.936Z,14.30
2019-03-30T12:03:31.260Z,14.40
2019-03-30T12:06:04.706Z,14.60
2019-03-30T12:08:38.298Z,14.70
2019-03-30T12:11:11.737Z,14.90
2019-03-30T12:13:45.268Z,15.00
2019-03-30T12:16:19.187Z,15.20
2019-03-30T12:18:56.117Z,15.00
2019-03-30T12:21:30.059Z,15.00
2019-03-30T12:24:04.624Z,15.10
2019-03-30T12:26:38.501Z,15.30
2019-03-30T12:29:12.420Z,15.70
2019-03-30T12:31:45.849Z,15.70
2019-03-30T12:34:19.378Z,16.10
2019-03-30T12:36:55.609Z,16.10
2019-03-30T12:39:29.807Z,16.20
2019-03-30T12:42:03.343Z,16.30
2019-03-30T12:44:36.751Z,16.50
2019-03-30T12:47:10.608Z,16.70
2019-03-30T12:49:45.418Z,16.30
2019-03-30T12:52:19.802Z,16.50
2019-03-30T12:54:53.159Z,16.40
2019-03-30T12:57:26.529Z,16.20
2019-03-30T13:00:01.611Z,16.40
2019-03-30T13:02:35.130Z,16.60
2019-03-30T13:05:09.041Z,16.30
2019-03-30T13:07:42.438Z,16.30
2019-03-30T13:10:16.689Z,16.20
2019-03-30T13:12:50.161Z,16.30
2019-03-30T13:15:23.557Z,16.90
2019-03-30T13:17:56.989Z,17.20
2019-03-30T13:20:30.680Z,17.50
2019-03-30T13:23:04.040Z,17.40
2019-03-30T13:25:37.460Z,17.70
2019-03-30T13:28:10.947Z,17.00
2019-03-30T13:30:46.061Z,17.50
2019-03-30T13:33:19.411Z,17.60
2019-03-30T13:35:52.842Z,17.70
2019-03-30T13:38:27.240Z,17.60
2019-03-30T13:41:00.728Z,17.30
2019-03-30T13:43:34.268Z,17.60
2019-03-30T13:46:07.818Z,17.80
2019-03-30T13:48:41.197Z,17.40
2019-03-30T13:51:14.643Z,17.90
2019-03-30T13:53:48.033Z,18.30
2019-03-30T13:56:27.375Z,18.30
2019-03-30T13:59:00.840Z,17.70
2019-03-30T14:01:34.240Z,17.90
2019-03-30T14:04:08.811Z,18.20
2019-03-30T14:06:43.917Z,18.30
2019-03-30T14:09:22.122Z,17.70
2019-03-30T14:11:56.791Z,17.50
2019-03-30T14:14:30.222Z,17.90
2019-03-30T14:17:05.303Z,17.80
2019-03-30T14:19:39.878Z,18.10
2019-03-30T14:22:13.303Z,17.90
2019-03-30T14:24:46.678Z,17.50
2019-03-30T14:27:20.102Z,18.00
2019-03-30T14:29:54.511Z,17.90
2019-03-30T14:32:29.025Z,18.00
2019-03-30T14:35:02.541Z,18.10
2019-03-30T14:37:36.068Z,17.90
2019-03-30T14:40:12.663Z,17.60
2019-03-30T14:42:46.068Z,17.50
2019-03-30T14:45:19.541Z,17.30
2019-03-30T14:47:52.977Z,17.10
2019-03-30T14:50:26.512Z,17.00
2019-03-30T14:52:59.917Z,16.90
2019-03-30T14:55:33.333Z,16.80
2019-03-30T14:58:06.845Z,16.70
2019-03-30T15:00:41.809Z,16.60
2019-03-30T15:03:15.348Z,16.60
2019-03-30T15:05:48.742Z,16.50
2019-03-30T15:08:22.251Z,16.40
2019-03-30T15:10:55.647Z,16.30
2019-03-30T15:13:34.021Z,16.40
2019-03-30T15:16:07.521Z,16.40
2019-03-30T15:18:40.969Z,16.30
2019-03-30T15:21:18.808Z,16.30
2019-03-30T15:23:52.223Z,16.20
2019-03-30T15:26:26.772Z,16.30
2019-03-30T15:29:00.178Z,16.30
2019-03-30T15:31:33.574Z,16.10
2019-03-30T15:34:07.119Z,16.10
2019-03-30T15:36:40.449Z,16.00
2019-03-30T15:39:13.913Z,16.00
2019-03-30T15:41:47.389Z,16.00
2019-03-30T15:44:23.723Z,16.00
2019-03-30T15:46:57.100Z,15.80
2019-03-30T15:49:31.579Z,15.80
2019-03-30T15:52:13.893Z,15.80
2019-03-30T15:54:40.092Z,15.80
2019-03-30T15:57:14.547Z,15.60
2019-03-30T15:59:47.990Z,15.50
2019-03-30T16:02:21.405Z,15.40
2019-03-30T16:04:54.814Z,15.40
2019-03-30T16:07:28.280Z,15.20
2019-03-30T16:10:02.700Z,15.20
2019-03-30T16:12:37.115Z,15.10
2019-03-30T16:15:10.820Z,15.00
2019-03-30T16:17:44.331Z,14.80
2019-03-30T16:20:17.820Z,14.60
2019-03-30T16:22:51.158Z,14.50
2019-03-30T16:25:24.575Z,14.30
2019-03-30T16:27:57.878Z,14.20
2019-03-30T16:30:31.382Z,14.00
2019-03-30T16:33:04.792Z,13.90
2019-03-30T16:35:38.195Z,13.70
2019-03-30T16:38:11.558Z,13.60
2019-03-30T16:40:45.167Z,13.40
2019-03-30T16:43:18.539Z,13.30
2019-03-30T16:45:51.936Z,13.10
2019-03-30T16:48:25.301Z,13.00
2019-03-30T16:50:58.652Z,12.80
2019-03-30T16:53:32.088Z,12.70
2019-03-30T16:56:08.073Z,12.60
2019-03-30T16:58:44.516Z,12.40
2019-03-30T17:01:17.951Z,12.30
2019-03-30T17:04:03.611Z,12.20
2019-03-30T17:06:27.522Z,12.00
2019-03-30T17:09:00.918Z,11.90
2019-03-30T17:11:36.401Z,11.80
2019-03-30T17:14:09.824Z,11.60
2019-03-30T17:16:43.230Z,11.40
2019-03-30T17:19:16.705Z,11.10
2019-03-30T17:21:50.211Z,10.80
2019-03-30T17:24:28.058Z,10.50
2019-03-30T17:27:02.439Z,10.30
2019-03-30T17:29:35.821Z,10.00
2019-03-30T17:32:09.240Z,9.90
2019-03-30T17:34:43.826Z,9.90
2019-03-30T17:37:21.495Z,9.70
2019-03-30T17:39:56.130Z,9.60
2019-03-30T17:42:29.532Z,9.50
2019-03-30T17:45:02.944Z,9.40
2019-03-30T17:47:36.331Z,9.40
2019-03-30T17:50:11.587Z,9.40
2019-03-30T17:52:45.010Z,9.40
2019-03-30T17:55:32.717Z,9.30
2019-03-30T17:57:54.594Z,9.10
2019-03-30T18:00:27.990Z,9.00
2019-03-30T18:03:01.484Z,9.00
2019-03-30T18:05:34.836Z,8.90
2019-03-30T18:08:08.299Z,8.90
2019-03-30T18:10:41.677Z,8.90
2019-03-30T18:13:16.274Z,8.90
2019-03-30T18:15:49.798Z,8.80
2019-03-30T18:18:25.350Z,8.70
2019-03-30T18:20:58.753Z,8.40
2019-03-30T18:23:32.172Z,8.20
2019-03-30T18:26:05.558Z,8.10
2019-03-30T18:28:38.979Z,8.00
2019-03-30T18:31:12.460Z,7.80
2019-03-30T18:33:47.268Z,7.80
2019-03-30T18:36:21.583Z,7.70
2019-03-30T18:39:09.380Z,7.50
2019-03-30T18:41:35.928Z,7.50
2019-03-30T18:44:10.200Z,7.50
2019-03-30T18:46:45.336Z,7.50
2019-03-30T18:49:21.392Z,7.30
2019-03-30T18:51:57.301Z,7.30
2019-03-30T18:54:31.908Z,7.40
2019-03-30T18:57:06.254Z,7.40
2019-03-30T18:59:40.553Z,7.30
2019-03-30T19:02:19.080Z,7.30
2019-03-30T19:04:56.641Z,7.20
2019-03-30T19:07:35.035Z,7.10
2019-03-30T19:10:11.685Z,7.10
2019-03-30T19:12:47.233Z,7.00
2019-03-30T19:15:22.986Z,7.10
2019-03-30T19:17:59.888Z,7.00
2019-03-30T19:20:37.037Z,7.00
2019-03-30T19:23:16.320Z,6.90
2019-03-30T19:25:53.837Z,6.90
2019-03-30T19:28:30.757Z,6.80
2019-03-30T19:31:07.582Z,6.80
2019-03-30T19:33:45.631Z,6.70
2019-03-30T19:36:22.086Z,6.60
2019-03-30T19:38:58.190Z,6.60
2019-03-30T19:41:37.139Z,6.50
2019-03-30T19:44:13.741Z,6.50
2019-03-30T19:46:50.435Z,6.40
2019-03-30T19:49:26.939Z,6.40
2019-03-30T19:52:05.821Z,6.30
2019-03-30T19:54:43.584Z,6.20
2019-03-30T19:57:20.087Z,6.10
2019-03-30T19:59:55.938Z,6.10
2019-03-30T20:02:32.287Z,6.00
2019-03-30T20:05:10.236Z,6.00
2019-03-30T20:07:45.965Z,6.00
2019-03-30T20:10:22.388Z,6.00
2019-03-30T20:12:58.714Z,6.00
2019-03-30T20:15:34.762Z,6.00
2019-03-30T20:18:10.966Z,5.90
2019-03-30T20:20:48.213Z,5.90
2019-03-30T20:23:25.652Z,5.70
2019-03-30T20:26:03.663Z,5.80
2019-03-30T20:28:39.217Z,5.70
2019-03-30T20:31:16.946Z,5.70
2019-03-30T20:33:54.322Z,5.60
2019-03-30T20:36:35.230Z,5.70
2019-03-30T20:39:11.288Z,5.60
2019-03-30T20:41:45.245Z,5.50
2019-03-30T20:44:19.605Z,5.50
2019-03-30T20:46:53.190Z,5.50
2019-03-30T20:49:26.920Z,5.40
2019-03-30T20:52:00.964Z,5.50
2019-03-30T20:54:36.158Z,5.30
2019-03-30T20:57:09.869Z,5.30
2019-03-30T20:59:45.781Z,5.30
2019-03-30T21:02:19.462Z,5.20
2019-03-30T21:04:52.869Z,5.20
2019-03-30T21:07:27.565Z,5.10
2019-03-30T21:10:02.150Z,5.10
2019-03-30T21:12:39.078Z,5.10
2019-03-30T21:15:13.925Z,5.10
2019-03-30T21:17:49.494Z,5.00
2019-03-30T21:20:23.746Z,5.10
2019-03-30T21:23:01.697Z,5.00
2019-03-30T21:25:40.289Z,5.00
2019-03-30T21:28:16.496Z,5.00
2019-03-30T21:30:52.848Z,5.00
2019-03-30T21:33:31.884Z,5.00
2019-03-30T21:36:08.074Z,5.00
2019-03-30T21:38:42.176Z,5.00
2019-03-30T21:41:19.419Z,5.00
2019-03-30T21:43:54.023Z,4.90
2019-03-30T21:46:29.199Z,4.80
2019-03-30T21:49:03.263Z,4.70
2019-03-30T21:51:37.127Z,4.80
2019-03-30T21:54:11.845Z,4.70
2019-03-30T21:56:47.310Z,4.80
2019-03-30T21:59:26.786Z,4.80
2019-03-30T22:02:01.118Z,4.70
2019-03-30T22:04:37.123Z,4.70
2019-03-30T22:07:12.573Z,4.70
2019-03-30T22:09:48.301Z,4.70
2019-03-30T22:12:28.579Z,4.60
2019-03-30T22:15:05.910Z,4.60
2019-03-30T22:17:40.611Z,4.60
2019-03-30T22:20:21.100Z,4.60
2019-03-30T22:22:58.868Z,4.50
2019-03-30T22:25:36.918Z,4.60
2019-03-30T22:28:14.263Z,4.60
2019-03-30T22:30:48.237Z,4.50
2019-03-30T22:33:22.789Z,4.50
2019-03-30T22:35:56.468Z,4.50
2019-03-30T22:38:29.789Z,4.50
2019-03-30T22:41:03.266Z,4.50
2019-03-30T22:43:37.891Z,4.50
2019-03-30T22:46:12.101Z,4.30
2019-03-30T22:48:47.084Z,4.30
2019-03-30T22:51:20.518Z,4.20
2019-03-30T22:53:54.966Z,4.20
2019-03-30T22:56:29.192Z,4.20
2019-03-30T22:59:02.976Z,4.20
2019-03-30T23:01:36.331Z,4.10
2019-03-30T23:04:09.694Z,4.20
2019-03-30T23:06:43.042Z,4.00
2019-03-30T23:09:16.429Z,4.10
2019-03-30T23:11:49.725Z,4.10
2019-03-30T23:14:46.992Z,4.00
2019-03-30T23:17:20.294Z,3.90
2019-03-30T23:19:53.799Z,3.90
2019-03-30T23:22:27.162Z,3.90
2019-03-30T23:25:00.567Z,3.90
2019-03-30T23:27:34.122Z,3.80
2019-03-30T23:30:09.320Z,3.80
2019-03-30T23:32:42.771Z,3.80
2019-03-30T23:35:16.166Z,3.70
2019-03-30T23:37:49.550Z,3.60
2019-03-30T23:40:22.941Z,3.70
2019-03-30T23:43:01.395Z,3.70
2019-03-30T23:45:34.788Z,3.60
2019-03-30T23:48:08.150Z,3.60
2019-03-30T23:50:41.575Z,3.60
2019-03-30T23:53:14.944Z,3.50
2019-03-30T23:55:48.331Z,3.60
2019-03-30T23:58:21.683Z,3.60
